createdAt,value
2019-05-09T00:01:43.856Z,6.53
2019-05-09T00:04:13.918Z,6.70
2019-05-09T00:06:43.159Z,5.60
2019-05-09T00:09:13.734Z,5.30
2019-05-09T00:11:43.995Z,6.10
2019-05-09T00:14:13.594Z,6.17
2019-05-09T00:16:43.883Z,5.47
2019-05-09T00:19:13.533Z,6.33
2019-05-09T00:21:46.825Z,6.17
2019-05-09T00:24:15.665Z,5.33
2019-05-09T00:26:44.786Z,5.67
2019-05-09T00:29:15.150Z,5.40
2019-05-09T00:32:03.491Z,5.70
2019-05-09T00:34:50.384Z,5.10
2019-05-09T00:37:20.838Z,5.23
2019-05-09T00:39:49.524Z,4.83
2019-05-09T00:42:18.168Z,5.27
2019-05-09T00:44:53.285Z,4.67
2019-05-09T00:47:24.029Z,4.93
2019-05-09T00:49:54.185Z,5.30
2019-05-09T00:52:23.526Z,4.60
2019-05-09T00:54:53.137Z,4.77
2019-05-09T00:57:34.275Z,5.27
2019-05-09T01:00:09.134Z,4.40
2019-05-09T01:02:37.793Z,4.93
2019-05-09T01:05:06.788Z,5.20
2019-05-09T01:07:35.606Z,5.47
2019-05-09T01:10:05.508Z,4.83
2019-05-09T01:12:34.238Z,5.30
2019-05-09T01:15:04.953Z,5.23
2019-05-09T01:17:33.808Z,4.50
2019-05-09T01:20:03.444Z,4.57
2019-05-09T01:22:33.158Z,4.03
2019-05-09T01:25:03.996Z,5.03
2019-05-09T01:27:33.979Z,3.97
2019-05-09T01:30:04.512Z,4.33
2019-05-09T01:32:40.399Z,3.83
2019-05-09T01:35:09.284Z,4.13
2019-05-09T01:37:37.929Z,4.70
2019-05-09T01:40:07.871Z,4.77
2019-05-09T01:42:55.989Z,4.80
2019-05-09T01:45:24.813Z,4.43
2019-05-09T01:47:53.893Z,5.37
2019-05-09T01:50:23.325Z,4.17
2019-05-09T01:52:53.355Z,4.03
2019-05-09T01:55:24.158Z,4.67
2019-05-09T01:57:53.874Z,4.00
2019-05-09T02:00:23.940Z,4.47
2019-05-09T02:02:54.061Z,5.40
2019-05-09T02:05:24.108Z,4.03
2019-05-09T02:07:54.245Z,5.97
2019-05-09T02:10:23.336Z,5.20
2019-05-09T02:12:53.822Z,5.97
2019-05-09T02:15:24.017Z,5.57
2019-05-09T02:18:01.286Z,6.17
2019-05-09T02:20:24.660Z,5.33
2019-05-09T02:22:54.237Z,4.77
2019-05-09T02:25:24.214Z,5.00
2019-05-09T02:27:55.120Z,6.60
2019-05-09T02:30:25.393Z,5.83
2019-05-09T02:32:54.758Z,6.73
2019-05-09T02:35:23.685Z,6.10
2019-05-09T02:37:52.369Z,5.80
2019-05-09T02:40:21.006Z,5.90
2019-05-09T02:42:49.731Z,5.80
2019-05-09T02:45:19.549Z,6.20
2019-05-09T02:47:49.055Z,6.17
2019-05-09T02:50:19.479Z,5.87
2019-05-09T02:52:48.867Z,6.20
2019-05-09T02:55:18.394Z,6.53
2019-05-09T02:57:49.161Z,6.87
2019-05-09T03:00:34.684Z,7.00
2019-05-09T03:03:20.129Z,5.77
2019-05-09T03:05:48.988Z,7.17
2019-05-09T03:08:19.231Z,7.10
2019-05-09T03:10:48.997Z,6.00
2019-05-09T03:13:19.212Z,6.17
2019-05-09T03:15:49.855Z,6.63
2019-05-09T03:18:19.124Z,7.30
2019-05-09T03:20:49.557Z,7.07
2019-05-09T03:23:19.115Z,7.07
2019-05-09T03:25:48.565Z,7.17
2019-05-09T03:28:34.398Z,7.80
2019-05-09T03:31:04.629Z,7.83
2019-05-09T03:33:35.675Z,6.67
2019-05-09T03:36:03.726Z,8.00
2019-05-09T03:38:32.367Z,7.03
2019-05-09T03:41:20.494Z,7.10
2019-05-09T03:43:49.115Z,6.93
2019-05-09T03:46:28.294Z,8.10
2019-05-09T03:49:04.361Z,7.23
2019-05-09T03:51:33.044Z,7.33
2019-05-09T03:54:01.694Z,7.90
2019-05-09T03:56:47.906Z,5.90
2019-05-09T03:59:17.623Z,6.53
2019-05-09T04:01:47.778Z,7.23
2019-05-09T04:04:17.346Z,7.20
2019-05-09T04:06:47.997Z,7.23
2019-05-09T04:09:17.966Z,7.80
2019-05-09T04:11:48.531Z,8.13
2019-05-09T04:14:28.235Z,6.90
2019-05-09T04:16:57.610Z,7.80
2019-05-09T04:19:27.534Z,8.37
2019-05-09T04:21:57.601Z,7.27
2019-05-09T04:24:28.184Z,7.40
2019-05-09T04:27:01.356Z,7.30
2019-05-09T04:29:30.041Z,7.50
2019-05-09T04:31:59.940Z,8.07
2019-05-09T04:34:28.521Z,8.13
2019-05-09T04:36:57.726Z,8.60
2019-05-09T04:39:28.280Z,8.20
2019-05-09T04:42:03.627Z,8.50
2019-05-09T04:44:29.347Z,8.03
2019-05-09T04:47:01.698Z,7.33
2019-05-09T04:49:30.039Z,8.00
2019-05-09T04:51:58.745Z,7.63
2019-05-09T04:54:28.054Z,7.73
2019-05-09T04:56:57.452Z,7.40
2019-05-09T04:59:28.356Z,7.43
2019-05-09T05:02:14.539Z,7.33
2019-05-09T05:04:43.320Z,6.73
2019-05-09T05:07:11.955Z,7.63
2019-05-09T05:09:40.551Z,7.90
2019-05-09T05:12:09.227Z,6.03
2019-05-09T05:14:38.432Z,7.13
2019-05-09T05:17:11.091Z,7.03
2019-05-09T05:19:38.291Z,6.10
2019-05-09T05:22:08.777Z,6.50
2019-05-09T05:24:39.069Z,7.13
2019-05-09T05:27:08.315Z,6.73
2019-05-09T05:29:38.369Z,7.70
2019-05-09T05:32:08.779Z,6.77
2019-05-09T05:34:57.897Z,14.90
2019-05-09T05:37:28.096Z,25.40
2019-05-09T05:39:58.315Z,31.30
2019-05-09T05:42:28.276Z,30.80
2019-05-09T05:44:58.277Z,35.37
2019-05-09T05:47:41.036Z,35.07
2019-05-09T05:50:28.982Z,31.10
2019-05-09T05:52:57.935Z,31.90
2019-05-09T05:55:27.418Z,26.30
2019-05-09T05:57:57.911Z,23.50
2019-05-09T06:00:28.587Z,23.90
2019-05-09T06:02:58.587Z,23.03
2019-05-09T06:05:27.915Z,23.03
2019-05-09T06:07:57.673Z,21.33
2019-05-09T06:10:28.757Z,20.47
2019-05-09T06:12:57.527Z,24.03
2019-05-09T06:15:28.666Z,25.03
2019-05-09T06:17:57.833Z,22.13
2019-05-09T06:20:28.080Z,23.10
2019-05-09T06:22:58.176Z,21.93
2019-05-09T06:25:30.411Z,23.50
2019-05-09T06:27:58.457Z,21.73
2019-05-09T06:30:30.726Z,21.17
2019-05-09T06:32:59.790Z,22.97
2019-05-09T06:35:29.100Z,21.90
2019-05-09T06:37:58.777Z,24.07
2019-05-09T06:40:28.678Z,21.43
2019-05-09T06:42:59.870Z,20.27
2019-05-09T06:45:45.914Z,20.57
2019-05-09T06:48:15.267Z,18.27
2019-05-09T06:50:43.958Z,18.50
2019-05-09T06:53:12.601Z,21.33
2019-05-09T06:55:41.283Z,20.30
2019-05-09T06:58:27.807Z,19.00
2019-05-09T07:00:58.500Z,19.90
2019-05-09T07:03:28.845Z,19.70
2019-05-09T07:05:59.179Z,20.47
2019-05-09T07:08:47.676Z,19.37
2019-05-09T07:11:19.023Z,18.23
2019-05-09T07:13:47.237Z,18.57
2019-05-09T07:16:18.458Z,20.07
2019-05-09T07:18:48.425Z,18.27
2019-05-09T07:21:18.926Z,19.90
2019-05-09T07:23:47.982Z,17.30
2019-05-09T07:26:18.408Z,20.67
2019-05-09T07:28:48.553Z,19.50
2019-05-09T07:31:31.035Z,21.37
2019-05-09T07:34:08.582Z,22.13
2019-05-09T07:36:38.347Z,20.50
2019-05-09T07:39:08.725Z,19.40
2019-05-09T07:41:38.392Z,18.10
2019-05-09T07:44:07.698Z,17.20
2019-05-09T07:46:38.481Z,18.30
2019-05-09T07:49:08.551Z,16.07
2019-05-09T07:51:37.520Z,16.27
2019-05-09T07:54:21.344Z,16.90
2019-05-09T07:56:37.793Z,17.77
2019-05-09T07:59:07.656Z,17.67
2019-05-09T08:01:38.436Z,16.50
2019-05-09T08:04:07.655Z,16.27
2019-05-09T08:06:38.015Z,16.20
2019-05-09T08:09:08.359Z,15.53
2019-05-09T08:11:37.653Z,14.30
2019-05-09T08:14:10.419Z,14.70
2019-05-09T08:16:37.930Z,15.60
2019-05-09T08:19:07.569Z,28.13
2019-05-09T08:21:38.389Z,15.63
2019-05-09T08:24:08.144Z,14.57
2019-05-09T08:26:39.336Z,14.57
2019-05-09T08:29:09.521Z,15.00
2019-05-09T08:31:40.057Z,17.90
2019-05-09T08:34:08.406Z,16.80
2019-05-09T08:36:38.497Z,16.70
2019-05-09T08:39:08.355Z,16.40
2019-05-09T08:41:38.454Z,17.10
2019-05-09T08:44:08.046Z,16.70
2019-05-09T08:46:37.700Z,16.87
2019-05-09T08:49:08.228Z,15.93
2019-05-09T08:51:56.217Z,14.93
2019-05-09T08:54:30.021Z,15.93
2019-05-09T08:56:58.736Z,17.33
2019-05-09T08:59:27.655Z,18.90
2019-05-09T09:02:14.019Z,16.43
2019-05-09T09:04:29.435Z,15.93
2019-05-09T09:06:57.632Z,16.40
2019-05-09T09:09:28.530Z,15.20
2019-05-09T09:11:58.358Z,17.53
2019-05-09T09:14:27.920Z,16.40
2019-05-09T09:16:57.615Z,18.03
2019-05-09T09:19:28.065Z,18.03
2019-05-09T09:22:00.246Z,16.53
2019-05-09T09:24:28.331Z,18.87
2019-05-09T09:26:57.474Z,17.00
2019-05-09T09:29:28.392Z,15.30
2019-05-09T09:31:57.644Z,16.10
2019-05-09T09:34:27.794Z,15.50
2019-05-09T09:37:02.963Z,16.13
2019-05-09T09:39:27.620Z,16.50
2019-05-09T09:41:58.660Z,14.83
2019-05-09T09:44:28.733Z,13.43
2019-05-09T09:46:58.217Z,12.33
2019-05-09T09:49:29.262Z,12.33
2019-05-09T09:51:58.079Z,12.60
2019-05-09T09:54:28.132Z,12.97
2019-05-09T09:56:58.477Z,12.63
2019-05-09T09:59:28.891Z,12.47
2019-05-09T10:02:02.266Z,12.67
2019-05-09T10:04:30.995Z,12.87
2019-05-09T10:06:59.799Z,11.63
2019-05-09T10:09:28.527Z,11.33
2019-05-09T10:12:00.549Z,9.77
2019-05-09T10:14:32.231Z,10.23
2019-05-09T10:17:02.583Z,9.77
2019-05-09T10:19:37.825Z,9.77
2019-05-09T10:22:08.501Z,9.33
2019-05-09T10:24:37.431Z,10.03
2019-05-09T10:27:08.677Z,9.73
2019-05-09T10:29:38.825Z,10.27
2019-05-09T10:32:12.505Z,10.33
2019-05-09T10:34:41.390Z,9.50
2019-05-09T10:37:10.108Z,10.37
2019-05-09T10:39:38.947Z,9.93
2019-05-09T10:42:09.279Z,11.77
2019-05-09T10:44:45.334Z,9.93
2019-05-09T10:47:33.155Z,12.10
2019-05-09T10:50:01.925Z,13.17
2019-05-09T10:52:30.521Z,12.40
2019-05-09T10:54:59.086Z,12.50
2019-05-09T10:57:31.537Z,11.30
2019-05-09T10:59:58.951Z,13.00
2019-05-09T11:02:28.009Z,15.57
2019-05-09T11:04:57.686Z,17.83
2019-05-09T11:07:28.900Z,17.33
2019-05-09T11:09:58.867Z,16.33
2019-05-09T11:12:27.698Z,15.27
2019-05-09T11:14:59.151Z,16.77
2019-05-09T11:17:28.581Z,17.37
2019-05-09T11:19:58.785Z,17.40
2019-05-09T11:22:29.203Z,16.00
2019-05-09T11:24:58.138Z,16.60
2019-05-09T11:27:28.980Z,17.50
2019-05-09T11:29:57.984Z,16.87
2019-05-09T11:32:27.702Z,16.00
2019-05-09T11:34:57.595Z,14.60
2019-05-09T11:37:26.619Z,16.90
2019-05-09T11:39:57.709Z,15.60
2019-05-09T11:42:25.739Z,16.20
2019-05-09T11:44:54.418Z,16.97
2019-05-09T11:47:33.573Z,16.63
2019-05-09T11:49:53.526Z,16.70
2019-05-09T11:52:22.269Z,16.07
2019-05-09T11:54:51.948Z,12.93
2019-05-09T11:57:20.592Z,13.17
2019-05-09T11:59:49.205Z,12.23
2019-05-09T12:02:18.238Z,12.10
2019-05-09T12:04:48.727Z,11.30
2019-05-09T12:07:17.997Z,10.93
2019-05-09T12:09:48.908Z,10.77
2019-05-09T12:12:19.349Z,10.77
2019-05-09T12:14:48.340Z,11.53
2019-05-09T12:17:19.507Z,11.30
2019-05-09T12:19:48.970Z,10.90
2019-05-09T12:22:19.055Z,10.67
2019-05-09T12:24:48.462Z,10.03
2019-05-09T12:27:18.869Z,9.80
2019-05-09T12:29:48.387Z,10.23
2019-05-09T12:32:18.720Z,9.87
2019-05-09T12:34:47.951Z,10.20
2019-05-09T12:37:18.257Z,8.77
2019-05-09T12:39:48.021Z,7.67
2019-05-09T12:42:18.577Z,7.60
2019-05-09T12:44:49.617Z,8.53
2019-05-09T12:47:19.007Z,7.97
2019-05-09T12:49:50.813Z,7.13
2019-05-09T12:52:19.537Z,7.67
2019-05-09T12:54:48.501Z,8.80
2019-05-09T12:57:19.254Z,9.00
2019-05-09T12:59:52.348Z,9.07
2019-05-09T13:02:18.200Z,8.87
2019-05-09T13:04:50.027Z,9.70
2019-05-09T13:07:19.088Z,10.80
2019-05-09T13:09:52.805Z,11.53
2019-05-09T13:12:18.414Z,10.97
2019-05-09T13:14:48.641Z,10.53
2019-05-09T13:17:27.137Z,9.07
2019-05-09T13:19:55.671Z,10.80
2019-05-09T13:22:24.456Z,10.50
2019-05-09T13:24:53.132Z,11.07
2019-05-09T13:27:21.828Z,10.97
2019-05-09T13:29:50.456Z,10.23
2019-05-09T13:32:19.164Z,9.83
2019-05-09T13:34:48.713Z,10.50
2019-05-09T13:37:18.785Z,11.53
2019-05-09T13:39:47.731Z,9.67
2019-05-09T13:42:19.606Z,8.30
2019-05-09T13:44:47.570Z,8.50
2019-05-09T13:47:24.869Z,9.17
2019-05-09T13:50:13.004Z,8.67
2019-05-09T13:52:41.628Z,9.00
2019-05-09T13:55:10.537Z,9.73
2019-05-09T13:57:39.175Z,9.60
2019-05-09T14:00:08.986Z,10.00
2019-05-09T14:02:38.602Z,9.80
2019-05-09T14:05:08.976Z,10.27
2019-05-09T14:07:37.896Z,10.10
2019-05-09T14:10:08.614Z,9.70
2019-05-09T14:12:38.155Z,10.27
2019-05-09T14:15:08.570Z,9.30
2019-05-09T14:17:47.421Z,9.53
2019-05-09T14:20:09.019Z,8.63
2019-05-09T14:22:38.600Z,8.57
2019-05-09T14:25:11.110Z,8.27
2019-05-09T14:27:37.766Z,9.13
2019-05-09T14:30:08.121Z,9.57
2019-05-09T14:32:39.775Z,9.13
2019-05-09T14:35:08.531Z,9.93
2019-05-09T14:37:38.853Z,9.90
2019-05-09T14:40:10.408Z,11.47
2019-05-09T14:42:40.478Z,11.40
2019-05-09T14:45:09.184Z,10.07
2019-05-09T14:47:41.970Z,10.70
2019-05-09T14:50:09.998Z,10.60
2019-05-09T14:52:38.741Z,11.03
2019-05-09T14:55:08.367Z,10.97
2019-05-09T14:57:38.365Z,11.07
2019-05-09T15:00:09.213Z,9.80
2019-05-09T15:02:38.855Z,10.87
2019-05-09T15:05:09.473Z,11.17
2019-05-09T15:07:39.098Z,11.63
2019-05-09T15:10:08.778Z,10.77
2019-05-09T15:12:39.068Z,12.70
2019-05-09T15:15:09.665Z,11.60
2019-05-09T15:17:38.300Z,11.03
2019-05-09T15:20:08.877Z,11.63
2019-05-09T15:22:38.792Z,11.60
2019-05-09T15:25:08.760Z,10.83
2019-05-09T15:27:38.424Z,10.60
2019-05-09T15:30:09.152Z,9.53
2019-05-09T15:32:38.348Z,10.10
2019-05-09T15:35:09.024Z,10.57
2019-05-09T15:37:38.554Z,11.17
2019-05-09T15:40:08.643Z,9.73
2019-05-09T15:42:39.029Z,9.37
2019-05-09T15:45:08.706Z,10.40
2019-05-09T15:47:38.043Z,9.80
2019-05-09T15:50:19.243Z,10.67
2019-05-09T15:52:38.492Z,9.10
2019-05-09T15:55:09.490Z,9.60
2019-05-09T15:57:37.996Z,9.67
2019-05-09T16:00:09.423Z,9.33
2019-05-09T16:02:39.050Z,9.07
2019-05-09T16:05:31.737Z,10.13
2019-05-09T16:07:59.314Z,8.47
2019-05-09T16:10:28.409Z,8.83
2019-05-09T16:12:57.158Z,9.67
2019-05-09T16:15:28.479Z,9.47
2019-05-09T16:17:56.296Z,9.13
2019-05-09T16:20:36.976Z,9.80
2019-05-09T16:22:57.290Z,9.37
2019-05-09T16:25:28.075Z,9.07
2019-05-09T16:27:58.581Z,9.97
2019-05-09T16:30:27.494Z,9.47
2019-05-09T16:32:58.445Z,9.47
2019-05-09T16:35:28.580Z,9.70
2019-05-09T16:38:06.054Z,10.43
2019-05-09T16:40:27.946Z,10.27
2019-05-09T16:42:58.094Z,9.83
2019-05-09T16:45:28.712Z,10.37
2019-05-09T16:47:57.620Z,10.33
2019-05-09T16:50:26.479Z,10.80
2019-05-09T16:52:58.259Z,10.83
2019-05-09T16:55:31.092Z,10.87
2019-05-09T16:57:57.470Z,10.70
2019-05-09T17:00:32.069Z,9.73
2019-05-09T17:03:00.654Z,10.60
2019-05-09T17:05:29.563Z,9.53
2019-05-09T17:07:58.419Z,9.90
2019-05-09T17:10:27.092Z,9.57
2019-05-09T17:12:58.060Z,9.77
2019-05-09T17:15:26.216Z,9.57
2019-05-09T17:17:54.790Z,9.57
2019-05-09T17:20:27.666Z,8.23
2019-05-09T17:23:15.066Z,8.97
2019-05-09T17:25:44.021Z,10.33
2019-05-09T17:28:12.840Z,10.83
2019-05-09T17:30:41.565Z,7.77
2019-05-09T17:33:10.280Z,64.27
2019-05-09T17:35:38.926Z,18.57
2019-05-09T17:38:08.725Z,4.10
2019-05-09T17:40:39.004Z,3.93
2019-05-09T17:43:08.486Z,3.80
2019-05-09T17:45:41.744Z,4.03
2019-05-09T17:48:08.608Z,4.27
2019-05-09T17:50:38.297Z,4.70
2019-05-09T17:53:08.648Z,4.03
2019-05-09T17:55:38.089Z,4.50
2019-05-09T17:58:08.735Z,4.57
2019-05-09T18:00:38.155Z,6.23
2019-05-09T18:03:06.936Z,5.53
2019-05-09T18:05:38.669Z,4.20
2019-05-09T18:08:08.049Z,4.43
2019-05-09T18:10:37.983Z,5.17
2019-05-09T18:13:08.041Z,5.70
2019-05-09T18:15:37.969Z,4.23
2019-05-09T18:18:07.174Z,4.10
2019-05-09T18:20:38.038Z,3.67
2019-05-09T18:23:08.185Z,4.43
2019-05-09T18:25:37.759Z,3.90
2019-05-09T18:28:07.023Z,3.70
2019-05-09T18:30:38.656Z,3.83
2019-05-09T18:33:10.562Z,4.57
2019-05-09T18:35:39.293Z,3.90
2019-05-09T18:38:09.397Z,3.33
2019-05-09T18:40:38.427Z,3.43
2019-05-09T18:43:07.681Z,3.50
2019-05-09T18:45:37.538Z,3.50
2019-05-09T18:48:08.440Z,4.10
2019-05-09T18:50:36.984Z,4.10
2019-05-09T18:53:07.099Z,4.03
2019-05-09T18:55:35.820Z,4.03
2019-05-09T18:58:04.472Z,3.67
2019-05-09T19:00:33.089Z,4.00
2019-05-09T19:03:01.792Z,3.60
2019-05-09T19:05:30.554Z,3.60
2019-05-09T19:08:04.247Z,3.63
2019-05-09T19:10:32.905Z,4.20
2019-05-09T19:13:02.351Z,4.10
2019-05-09T19:15:35.333Z,3.60
2019-05-09T19:18:05.879Z,3.53
2019-05-09T19:20:39.428Z,4.30
2019-05-09T19:23:08.112Z,4.50
2019-05-09T19:25:36.826Z,4.20
2019-05-09T19:28:05.451Z,5.20
2019-05-09T19:30:34.168Z,5.67
2019-05-09T19:33:03.308Z,4.80
2019-05-09T19:35:32.022Z,4.50
2019-05-09T19:38:00.827Z,5.33
2019-05-09T19:40:29.546Z,5.63
2019-05-09T19:42:58.093Z,4.73
2019-05-09T19:45:26.728Z,4.43
2019-05-09T19:47:55.448Z,6.00
2019-05-09T19:50:24.084Z,5.73
2019-05-09T19:52:52.873Z,5.70
2019-05-09T19:55:21.695Z,5.37
2019-05-09T19:57:50.446Z,6.20
2019-05-09T20:00:19.271Z,6.53
2019-05-09T20:02:47.914Z,6.53
2019-05-09T20:05:16.641Z,7.27
2019-05-09T20:07:45.333Z,7.40
2019-05-09T20:10:16.101Z,7.20
2019-05-09T20:12:49.101Z,7.70
2019-05-09T20:15:19.627Z,7.07
2019-05-09T20:17:48.523Z,7.30
2019-05-09T20:20:17.208Z,8.87
2019-05-09T20:22:53.020Z,7.50
2019-05-09T20:25:16.321Z,8.47
2019-05-09T20:27:45.146Z,7.33
2019-05-09T20:30:13.848Z,8.40
2019-05-09T20:32:42.561Z,8.27
2019-05-09T20:35:11.265Z,8.30
2019-05-09T20:37:40.172Z,8.67
2019-05-09T20:40:09.268Z,8.83
2019-05-09T20:42:38.024Z,8.30
2019-05-09T20:45:07.404Z,9.87
2019-05-09T20:47:36.411Z,8.20
2019-05-09T20:50:06.719Z,10.07
2019-05-09T20:52:35.712Z,9.80
2019-05-09T20:55:06.016Z,9.97
2019-05-09T20:57:34.948Z,9.10
2019-05-09T21:00:05.227Z,10.27
2019-05-09T21:02:34.095Z,9.67
2019-05-09T21:05:02.971Z,9.53
2019-05-09T21:07:31.822Z,10.03
2019-05-09T21:10:00.842Z,10.07
2019-05-09T21:12:29.261Z,10.23
2019-05-09T21:14:58.191Z,12.00
2019-05-09T21:17:27.468Z,11.47
2019-05-09T21:19:56.212Z,11.57
2019-05-09T21:22:25.008Z,10.30
2019-05-09T21:24:53.838Z,11.43
2019-05-09T21:27:22.761Z,10.77
2019-05-09T21:29:51.643Z,12.53
2019-05-09T21:32:20.528Z,11.07
2019-05-09T21:34:49.149Z,11.50
2019-05-09T21:37:17.845Z,9.93
2019-05-09T21:39:46.580Z,10.73
2019-05-09T21:42:15.266Z,10.00
2019-05-09T21:44:43.960Z,9.20
2019-05-09T21:47:12.698Z,10.53
2019-05-09T21:49:41.377Z,11.47
2019-05-09T21:52:09.970Z,11.60
2019-05-09T21:54:38.744Z,11.90
2019-05-09T21:57:07.440Z,10.43
2019-05-09T21:59:36.145Z,10.97
2019-05-09T22:02:05.424Z,10.23
2019-05-09T22:04:34.162Z,11.03
2019-05-09T22:07:02.798Z,10.30
2019-05-09T22:09:31.453Z,10.13
2019-05-09T22:12:00.551Z,10.30
2019-05-09T22:14:29.290Z,8.90
2019-05-09T22:16:59.678Z,10.30
2019-05-09T22:19:28.286Z,9.73
2019-05-09T22:21:56.908Z,10.33
2019-05-09T22:24:25.581Z,9.83
2019-05-09T22:26:54.286Z,10.07
2019-05-09T22:29:22.916Z,11.27
2019-05-09T22:31:51.631Z,10.07
2019-05-09T22:34:20.318Z,10.27
2019-05-09T22:36:48.942Z,9.97
2019-05-09T22:39:17.643Z,10.23
2019-05-09T22:41:46.202Z,10.67
2019-05-09T22:44:14.910Z,10.43
2019-05-09T22:46:43.629Z,10.70
2019-05-09T22:49:12.312Z,11.07
2019-05-09T22:51:40.929Z,11.63
2019-05-09T22:54:12.612Z,11.43
2019-05-09T22:56:39.942Z,11.70
2019-05-09T22:59:08.636Z,11.33
2019-05-09T23:01:37.297Z,12.00
2019-05-09T23:04:06.003Z,11.27
2019-05-09T23:06:34.636Z,10.93
2019-05-09T23:09:04.904Z,10.67
2019-05-09T23:11:33.523Z,11.23
2019-05-09T23:14:02.167Z,10.70
2019-05-09T23:16:32.546Z,12.43
2019-05-09T23:19:01.356Z,11.07
2019-05-09T23:21:30.404Z,10.87
2019-05-09T23:24:03.116Z,10.20
2019-05-09T23:26:31.729Z,10.30
2019-05-09T23:29:00.428Z,10.30
2019-05-09T23:31:42.696Z,12.10
2019-05-09T23:34:11.387Z,11.87
2019-05-09T23:36:40.069Z,11.03
2019-05-09T23:39:10.426Z,10.87
2019-05-09T23:41:39.084Z,11.27
2019-05-09T23:44:07.919Z,11.47
2019-05-09T23:46:36.719Z,10.40
2019-05-09T23:49:05.420Z,11.07
2019-05-09T23:51:49.749Z,11.13
2019-05-09T23:54:47.238Z,9.80
2019-05-09T23:57:27.742Z,9.57
